sensor_id;sensor_type;location;lat;lon;timestamp;P1;durP1;ratioP1;P2;durP2;ratioP2
71125;SDS011;58785;55.566;38.058;2023-04-01T00:01:09;19.77;;;7.28;;
71125;SDS011;58785;55.566;38.058;2023-04-01T00:03:38;18.90;;;7.10;;
71125;SDS011;58785;55.566;38.058;2023-04-01T00:06:04;17.65;;;6.40;;
71125;SDS011;58785;55.566;38.058;2023-04-01T00:08:30;20.87;;;7.23;;
71125;SDS011;58785;55.566;38.058;2023-04-01T00:10:56;19.30;;;7.07;;
71125;SDS011;58785;55.566;38.058;2023-04-01T00:13:22;19.97;;;6.87;;
71125;SDS011;58785;55.566;38.058;2023-04-01T00:15:48;17.27;;;6.85;;
71125;SDS011;58785;55.566;38.058;2023-04-01T00:18:14;19.60;;;7.13;;
71125;SDS011;58785;55.566;38.058;2023-04-01T00:20:44;17.92;;;7.03;;
71125;SDS011;58785;55.566;38.058;2023-04-01T00:23:11;21.10;;;7.23;;
71125;SDS011;58785;55.566;38.058;2023-04-01T00:25:37;19.35;;;6.65;;
71125;SDS011;58785;55.566;38.058;2023-04-01T00:28:03;19.00;;;6.70;;
71125;SDS011;58785;55.566;38.058;2023-04-01T00:30:29;19.47;;;6.77;;
71125;SDS011;58785;55.566;38.058;2023-04-01T00:32:54;17.83;;;6.93;;
71125;SDS011;58785;55.566;38.058;2023-04-01T00:35:21;21.53;;;6.40;;
71125;SDS011;58785;55.566;38.058;2023-04-01T00:37:47;18.73;;;6.40;;
71125;SDS011;58785;55.566;38.058;2023-04-01T00:43:10;21.65;;;7.60;;
71125;SDS011;58785;55.566;38.058;2023-04-01T00:45:44;17.50;;;7.00;;
71125;SDS011;58785;55.566;38.058;2023-04-01T00:48:14;20.53;;;6.57;;
71125;SDS011;58785;55.566;38.058;2023-04-01T00:50:44;19.00;;;7.10;;
71125;SDS011;58785;55.566;38.058;2023-04-01T00:53:14;19.25;;;7.68;;
71125;SDS011;58785;55.566;38.058;2023-04-01T00:55:45;19.27;;;7.18;;
71125;SDS011;58785;55.566;38.058;2023-04-01T00:58:17;20.05;;;7.38;;
71125;SDS011;58785;55.566;38.058;2023-04-01T01:00:46;17.93;;;5.30;;
71125;SDS011;58785;55.566;38.058;2023-04-01T01:03:13;16.95;;;6.28;;
71125;SDS011;58785;55.566;38.058;2023-04-01T01:11:19;17.97;;;6.40;;
71125;SDS011;58785;55.566;38.058;2023-04-01T01:14:07;19.42;;;6.72;;
71125;SDS011;58785;55.566;38.058;2023-04-01T01:16:43;16.58;;;6.75;;
71125;SDS011;58785;55.566;38.058;2023-04-01T01:19:20;19.38;;;6.97;;
71125;SDS011;58785;55.566;38.058;2023-04-01T01:24:52;23.47;;;7.23;;
71125;SDS011;58785;55.566;38.058;2023-04-01T01:27:31;27.38;;;7.72;;
71125;SDS011;58785;55.566;38.058;2023-04-01T01:33:12;36.75;;;10.85;;
71125;SDS011;58785;55.566;38.058;2023-04-01T01:35:51;36.08;;;12.35;;
71125;SDS011;58785;55.566;38.058;2023-04-01T01:38:24;40.03;;;13.00;;
71125;SDS011;58785;55.566;38.058;2023-04-01T01:40:54;49.83;;;14.27;;
71125;SDS011;58785;55.566;38.058;2023-04-01T01:43:26;47.03;;;15.20;;
71125;SDS011;58785;55.566;38.058;2023-04-01T01:45:58;38.95;;;15.23;;
71125;SDS011;58785;55.566;38.058;2023-04-01T01:48:27;39.92;;;13.27;;
71125;SDS011;58785;55.566;38.058;2023-04-01T01:50:54;41.30;;;12.33;;
71125;SDS011;58785;55.566;38.058;2023-04-01T01:53:20;37.80;;;12.90;;
71125;SDS011;58785;55.566;38.058;2023-04-01T01:55:48;38.97;;;13.00;;
71125;SDS011;58785;55.566;38.058;2023-04-01T02:01:10;28.95;;;11.30;;
71125;SDS011;58785;55.566;38.058;2023-04-01T02:03:40;25.73;;;8.77;;
71125;SDS011;58785;55.566;38.058;2023-04-01T02:06:10;24.40;;;9.03;;
71125;SDS011;58785;55.566;38.058;2023-04-01T02:08:49;23.95;;;8.13;;
71125;SDS011;58785;55.566;38.058;2023-04-01T02:11:18;21.63;;;7.72;;
71125;SDS011;58785;55.566;38.058;2023-04-01T02:13:54;23.48;;;8.40;;
71125;SDS011;58785;55.566;38.058;2023-04-01T02:16:51;21.00;;;7.43;;
71125;SDS011;58785;55.566;38.058;2023-04-01T02:19:22;22.23;;;7.07;;
71125;SDS011;58785;55.566;38.058;2023-04-01T02:21:53;15.18;;;6.25;;
71125;SDS011;58785;55.566;38.058;2023-04-01T02:24:23;17.52;;;6.15;;
71125;SDS011;58785;55.566;38.058;2023-04-01T02:26:52;17.63;;;5.80;;
71125;SDS011;58785;55.566;38.058;2023-04-01T02:29:19;15.90;;;5.13;;
71125;SDS011;58785;55.566;38.058;2023-04-01T02:31:46;13.40;;;5.00;;
71125;SDS011;58785;55.566;38.058;2023-04-01T02:34:13;17.38;;;5.57;;
71125;SDS011;58785;55.566;38.058;2023-04-01T02:36:39;14.18;;;5.32;;
71125;SDS011;58785;55.566;38.058;2023-04-01T02:39:05;13.77;;;5.07;;
71125;SDS011;58785;55.566;38.058;2023-04-01T02:41:31;15.05;;;5.43;;
71125;SDS011;58785;55.566;38.058;2023-04-01T02:44:04;11.23;;;4.47;;
71125;SDS011;58785;55.566;38.058;2023-04-01T02:46:30;14.82;;;5.28;;
71125;SDS011;58785;55.566;38.058;2023-04-01T02:48:55;13.70;;;4.73;;
71125;SDS011;58785;55.566;38.058;2023-04-01T02:51:21;15.03;;;5.07;;
71125;SDS011;58785;55.566;38.058;2023-04-01T02:53:47;15.63;;;5.20;;
71125;SDS011;58785;55.566;38.058;2023-04-01T02:56:12;13.77;;;5.03;;
71125;SDS011;58785;55.566;38.058;2023-04-01T02:58:38;18.13;;;6.65;;
71125;SDS011;58785;55.566;38.058;2023-04-01T03:01:03;19.27;;;6.87;;
71125;SDS011;58785;55.566;38.058;2023-04-01T03:03:29;24.98;;;8.40;;
71125;SDS011;58785;55.566;38.058;2023-04-01T03:05:54;22.47;;;8.50;;
71125;SDS011;58785;55.566;38.058;2023-04-01T03:08:21;30.10;;;10.70;;
71125;SDS011;58785;55.566;38.058;2023-04-01T03:10:47;55.57;;;17.60;;
71125;SDS011;58785;55.566;38.058;2023-04-01T03:13:12;60.17;;;18.48;;
71125;SDS011;58785;55.566;38.058;2023-04-01T03:15:38;56.60;;;18.63;;
71125;SDS011;58785;55.566;38.058;2023-04-01T03:18:03;66.33;;;21.63;;
71125;SDS011;58785;55.566;38.058;2023-04-01T03:20:29;61.83;;;21.47;;
71125;SDS011;58785;55.566;38.058;2023-04-01T03:22:55;74.67;;;24.33;;
71125;SDS011;58785;55.566;38.058;2023-04-01T03:25:20;83.50;;;27.87;;
71125;SDS011;58785;55.566;38.058;2023-04-01T03:27:46;85.73;;;25.57;;
71125;SDS011;58785;55.566;38.058;2023-04-01T03:30:12;77.82;;;25.35;;
71125;SDS011;58785;55.566;38.058;2023-04-01T03:32:37;75.23;;;25.77;;
71125;SDS011;58785;55.566;38.058;2023-04-01T03:35:03;71.05;;;22.60;;
71125;SDS011;58785;55.566;38.058;2023-04-01T03:37:30;64.27;;;23.77;;
71125;SDS011;58785;55.566;38.058;2023-04-01T03:39:55;56.95;;;20.13;;
71125;SDS011;58785;55.566;38.058;2023-04-01T03:42:21;53.00;;;17.00;;
71125;SDS011;58785;55.566;38.058;2023-04-01T03:44:47;52.15;;;17.60;;
71125;SDS011;58785;55.566;38.058;2023-04-01T03:47:12;40.93;;;14.77;;
71125;SDS011;58785;55.566;38.058;2023-04-01T03:49:38;42.38;;;13.02;;
71125;SDS011;58785;55.566;38.058;2023-04-01T03:52:03;35.17;;;11.53;;
71125;SDS011;58785;55.566;38.058;2023-04-01T03:54:29;27.73;;;9.30;;
71125;SDS011;58785;55.566;38.058;2023-04-01T03:56:55;30.30;;;10.03;;
71125;SDS011;58785;55.566;38.058;2023-04-01T03:59:22;27.20;;;8.90;;
71125;SDS011;58785;55.566;38.058;2023-04-01T04:01:48;21.40;;;8.38;;
71125;SDS011;58785;55.566;38.058;2023-04-01T04:04:14;19.90;;;6.50;;
71125;SDS011;58785;55.566;38.058;2023-04-01T04:06:40;16.77;;;5.95;;
71125;SDS011;58785;55.566;38.058;2023-04-01T04:09:06;16.43;;;5.73;;
71125;SDS011;58785;55.566;38.058;2023-04-01T04:11:32;18.45;;;6.43;;
71125;SDS011;58785;55.566;38.058;2023-04-01T04:13:58;17.37;;;5.27;;
71125;SDS011;58785;55.566;38.058;2023-04-01T04:16:24;15.68;;;4.68;;
71125;SDS011;58785;55.566;38.058;2023-04-01T04:18:49;15.05;;;5.25;;
71125;SDS011;58785;55.566;38.058;2023-04-01T04:21:16;14.23;;;5.03;;
71125;SDS011;58785;55.566;38.058;2023-04-01T04:23:42;15.35;;;5.20;;
71125;SDS011;58785;55.566;38.058;2023-04-01T04:26:09;12.25;;;4.40;;
71125;SDS011;58785;55.566;38.058;2023-04-01T04:28:36;12.15;;;4.60;;
71125;SDS011;58785;55.566;38.058;2023-04-01T04:31:03;14.93;;;5.57;;
71125;SDS011;58785;55.566;38.058;2023-04-01T04:33:33;19.13;;;6.05;;
71125;SDS011;58785;55.566;38.058;2023-04-01T04:35:59;16.83;;;6.20;;
71125;SDS011;58785;55.566;38.058;2023-04-01T04:38:26;16.48;;;5.93;;
71125;SDS011;58785;55.566;38.058;2023-04-01T04:40:52;15.95;;;6.03;;
71125;SDS011;58785;55.566;38.058;2023-04-01T04:43:18;15.90;;;5.60;;
71125;SDS011;58785;55.566;38.058;2023-04-01T04:45:44;16.38;;;6.05;;
71125;SDS011;58785;55.566;38.058;2023-04-01T04:48:10;13.77;;;5.95;;
71125;SDS011;58785;55.566;38.058;2023-04-01T04:50:41;18.10;;;6.63;;
71125;SDS011;58785;55.566;38.058;2023-04-01T04:53:09;18.58;;;6.13;;
71125;SDS011;58785;55.566;38.058;2023-04-01T04:55:38;16.23;;;5.82;;
71125;SDS011;58785;55.566;38.058;2023-04-01T04:58:08;12.80;;;5.10;;
71125;SDS011;58785;55.566;38.058;2023-04-01T05:00:34;13.33;;;5.47;;
71125;SDS011;58785;55.566;38.058;2023-04-01T05:03:00;12.77;;;5.10;;
71125;SDS011;58785;55.566;38.058;2023-04-01T05:05:26;14.13;;;5.13;;
71125;SDS011;58785;55.566;38.058;2023-04-01T05:07:51;14.55;;;5.35;;
71125;SDS011;58785;55.566;38.058;2023-04-01T05:10:17;14.20;;;5.13;;
71125;SDS011;58785;55.566;38.058;2023-04-01T05:12:42;14.10;;;4.77;;
71125;SDS011;58785;55.566;38.058;2023-04-01T05:15:08;17.75;;;5.43;;
71125;SDS011;58785;55.566;38.058;2023-04-01T05:17:34;13.45;;;4.65;;
71125;SDS011;58785;55.566;38.058;2023-04-01T05:20:00;15.60;;;4.93;;
71125;SDS011;58785;55.566;38.058;2023-04-01T05:22:26;13.35;;;5.03;;
71125;SDS011;58785;55.566;38.058;2023-04-01T05:24:52;16.13;;;5.85;;
71125;SDS011;58785;55.566;38.058;2023-04-01T05:27:18;15.43;;;5.07;;
71125;SDS011;58785;55.566;38.058;2023-04-01T05:29:43;14.38;;;5.30;;
71125;SDS011;58785;55.566;38.058;2023-04-01T05:32:09;14.73;;;5.13;;
71125;SDS011;58785;55.566;38.058;2023-04-01T05:34:35;11.93;;;4.88;;
71125;SDS011;58785;55.566;38.058;2023-04-01T05:37:00;12.10;;;4.60;;
71125;SDS011;58785;55.566;38.058;2023-04-01T05:39:26;11.80;;;5.05;;
71125;SDS011;58785;55.566;38.058;2023-04-01T05:41:51;16.07;;;5.87;;
71125;SDS011;58785;55.566;38.058;2023-04-01T05:44:17;13.67;;;5.10;;
71125;SDS011;58785;55.566;38.058;2023-04-01T05:46:43;15.07;;;5.68;;
71125;SDS011;58785;55.566;38.058;2023-04-01T05:49:08;15.07;;;4.80;;
71125;SDS011;58785;55.566;38.058;2023-04-01T05:51:34;12.13;;;4.68;;
71125;SDS011;58785;55.566;38.058;2023-04-01T05:54:00;15.87;;;5.57;;
71125;SDS011;58785;55.566;38.058;2023-04-01T05:56:25;12.70;;;5.32;;
71125;SDS011;58785;55.566;38.058;2023-04-01T05:58:52;16.60;;;5.43;;
71125;SDS011;58785;55.566;38.058;2023-04-01T06:01:19;14.88;;;5.15;;
71125;SDS011;58785;55.566;38.058;2023-04-01T06:03:45;13.48;;;4.78;;
71125;SDS011;58785;55.566;38.058;2023-04-01T06:06:15;14.83;;;5.40;;
71125;SDS011;58785;55.566;38.058;2023-04-01T06:08:48;16.80;;;5.75;;
71125;SDS011;58785;55.566;38.058;2023-04-01T06:39:48;20.48;;;6.35;;
71125;SDS011;58785;55.566;38.058;2023-04-01T06:42:41;17.05;;;6.07;;
71125;SDS011;58785;55.566;38.058;2023-04-01T06:48:00;14.43;;;5.40;;
71125;SDS011;58785;55.566;38.058;2023-04-01T06:53:19;14.30;;;5.20;;
71125;SDS011;58785;55.566;38.058;2023-04-01T06:55:56;13.35;;;5.25;;
71125;SDS011;58785;55.566;38.058;2023-04-01T06:58:29;14.13;;;5.13;;
71125;SDS011;58785;55.566;38.058;2023-04-01T07:01:00;14.70;;;6.07;;
71125;SDS011;58785;55.566;38.058;2023-04-01T07:05:56;18.27;;;6.63;;
71125;SDS011;58785;55.566;38.058;2023-04-01T07:08:27;16.60;;;6.82;;
71125;SDS011;58785;55.566;38.058;2023-04-01T07:11:05;16.90;;;6.47;;
71125;SDS011;58785;55.566;38.058;2023-04-01T07:13:44;16.33;;;6.95;;
71125;SDS011;58785;55.566;38.058;2023-04-01T07:18:57;15.00;;;6.30;;
71125;SDS011;58785;55.566;38.058;2023-04-01T07:21:26;16.17;;;6.22;;
71125;SDS011;58785;55.566;38.058;2023-04-01T07:24:21;14.50;;;6.03;;
71125;SDS011;58785;55.566;38.058;2023-04-01T07:26:53;15.27;;;5.90;;
71125;SDS011;58785;55.566;38.058;2023-04-01T07:29:21;12.45;;;5.55;;
71125;SDS011;58785;55.566;38.058;2023-04-01T07:34:28;11.15;;;5.18;;
71125;SDS011;58785;55.566;38.058;2023-04-01T07:45:32;13.23;;;4.83;;
71125;SDS011;58785;55.566;38.058;2023-04-01T07:48:18;13.75;;;5.05;;
71125;SDS011;58785;55.566;38.058;2023-04-01T07:53:49;10.27;;;4.38;;
71125;SDS011;58785;55.566;38.058;2023-04-01T07:56:32;12.73;;;5.43;;
71125;SDS011;58785;55.566;38.058;2023-04-01T08:10:21;12.50;;;4.80;;
71125;SDS011;58785;55.566;38.058;2023-04-01T08:15:26;13.40;;;5.55;;
71125;SDS011;58785;55.566;38.058;2023-04-01T08:20:51;13.00;;;4.93;;
71125;SDS011;58785;55.566;38.058;2023-04-01T08:23:45;12.43;;;4.55;;
71125;SDS011;58785;55.566;38.058;2023-04-01T08:26:13;13.83;;;5.67;;
71125;SDS011;58785;55.566;38.058;2023-04-01T08:29:00;13.52;;;5.45;;
71125;SDS011;58785;55.566;38.058;2023-04-01T08:34:42;12.38;;;5.30;;
71125;SDS011;58785;55.566;38.058;2023-04-01T08:37:17;15.90;;;4.82;;
71125;SDS011;58785;55.566;38.058;2023-04-01T08:39:48;12.57;;;4.70;;
71125;SDS011;58785;55.566;38.058;2023-04-01T08:45:15;11.63;;;4.80;;
71125;SDS011;58785;55.566;38.058;2023-04-01T08:56:36;13.95;;;5.32;;
71125;SDS011;58785;55.566;38.058;2023-04-01T09:02:39;13.43;;;5.45;;
71125;SDS011;58785;55.566;38.058;2023-04-01T09:22:05;11.23;;;4.63;;
71125;SDS011;58785;55.566;38.058;2023-04-01T09:27:31;16.63;;;5.95;;
71125;SDS011;58785;55.566;38.058;2023-04-01T09:30:32;11.25;;;4.65;;
71125;SDS011;58785;55.566;38.058;2023-04-01T09:35:50;15.00;;;4.77;;
71125;SDS011;58785;55.566;38.058;2023-04-01T10:00:39;9.65;;;3.75;;
71125;SDS011;58785;55.566;38.058;2023-04-01T10:17:25;10.57;;;4.22;;
71125;SDS011;58785;55.566;38.058;2023-04-01T10:22:48;10.47;;;3.97;;
71125;SDS011;58785;55.566;38.058;2023-04-01T10:31:41;10.07;;;3.78;;
71125;SDS011;58785;55.566;38.058;2023-04-01T11:08:27;10.32;;;3.92;;
71125;SDS011;58785;55.566;38.058;2023-04-01T11:21:33;11.35;;;4.13;;
71125;SDS011;58785;55.566;38.058;2023-04-01T11:38:19;15.45;;;3.78;;
71125;SDS011;58785;55.566;38.058;2023-04-01T11:44:03;10.75;;;3.72;;
71125;SDS011;58785;55.566;38.058;2023-04-01T11:49:45;8.65;;;3.30;;
71125;SDS011;58785;55.566;38.058;2023-04-01T11:52:46;9.57;;;2.92;;
71125;SDS011;58785;55.566;38.058;2023-04-01T11:55:35;14.03;;;3.20;;
71125;SDS011;58785;55.566;38.058;2023-04-01T11:58:31;9.18;;;3.45;;
71125;SDS011;58785;55.566;38.058;2023-04-01T12:06:47;11.48;;;4.05;;
71125;SDS011;58785;55.566;38.058;2023-04-01T12:12:42;12.00;;;4.68;;
71125;SDS011;58785;55.566;38.058;2023-04-01T12:31:38;9.00;;;3.28;;
71125;SDS011;58785;55.566;38.058;2023-04-01T12:37:13;8.93;;;2.40;;
71125;SDS011;58785;55.566;38.058;2023-04-01T12:40:27;10.07;;;2.95;;
71125;SDS011;58785;55.566;38.058;2023-04-01T12:46:13;10.73;;;2.80;;
71125;SDS011;58785;55.566;38.058;2023-04-01T12:59:15;12.02;;;3.70;;
71125;SDS011;58785;55.566;38.058;2023-04-01T13:02:20;10.60;;;3.47;;
71125;SDS011;58785;55.566;38.058;2023-04-01T13:05:23;8.10;;;2.70;;
71125;SDS011;58785;55.566;38.058;2023-04-01T13:07:57;9.88;;;2.92;;
71125;SDS011;58785;55.566;38.058;2023-04-01T13:16:16;10.20;;;2.80;;
71125;SDS011;58785;55.566;38.058;2023-04-01T13:19:56;8.33;;;2.83;;
71125;SDS011;58785;55.566;38.058;2023-04-01T13:22:11;8.82;;;2.90;;
71125;SDS011;58785;55.566;38.058;2023-04-01T13:25:47;7.90;;;2.80;;
71125;SDS011;58785;55.566;38.058;2023-04-01T13:42:28;7.13;;;2.67;;
71125;SDS011;58785;55.566;38.058;2023-04-01T13:45:12;10.05;;;3.50;;
71125;SDS011;58785;55.566;38.058;2023-04-01T13:53:37;12.23;;;3.58;;
71125;SDS011;58785;55.566;38.058;2023-04-01T13:56:34;11.93;;;3.92;;
71125;SDS011;58785;55.566;38.058;2023-04-01T14:12:42;11.27;;;4.63;;
71125;SDS011;58785;55.566;38.058;2023-04-01T14:18:33;11.20;;;4.43;;
71125;SDS011;58785;55.566;38.058;2023-04-01T14:23:53;13.35;;;5.45;;
71125;SDS011;58785;55.566;38.058;2023-04-01T14:32:02;15.35;;;5.53;;
71125;SDS011;58785;55.566;38.058;2023-04-01T14:56:49;17.88;;;6.93;;
71125;SDS011;58785;55.566;38.058;2023-04-01T15:01:50;18.02;;;7.45;;
71125;SDS011;58785;55.566;38.058;2023-04-01T15:15:31;19.20;;;9.45;;
71125;SDS011;58785;55.566;38.058;2023-04-01T15:18:07;20.65;;;10.07;;
71125;SDS011;58785;55.566;38.058;2023-04-01T15:20:47;23.90;;;10.80;;
71125;SDS011;58785;55.566;38.058;2023-04-01T15:26:32;19.77;;;8.60;;
71125;SDS011;58785;55.566;38.058;2023-04-01T15:44:58;23.95;;;11.45;;
71125;SDS011;58785;55.566;38.058;2023-04-01T15:47:42;21.15;;;10.32;;
71125;SDS011;58785;55.566;38.058;2023-04-01T15:53:11;22.38;;;10.88;;
71125;SDS011;58785;55.566;38.058;2023-04-01T16:05:07;18.88;;;9.00;;
71125;SDS011;58785;55.566;38.058;2023-04-01T16:08:02;18.02;;;9.20;;
71125;SDS011;58785;55.566;38.058;2023-04-01T16:13:28;18.92;;;8.95;;
71125;SDS011;58785;55.566;38.058;2023-04-01T16:21:14;31.67;;;15.80;;
71125;SDS011;58785;55.566;38.058;2023-04-01T16:23:50;28.00;;;13.37;;
71125;SDS011;58785;55.566;38.058;2023-04-01T16:26:19;23.48;;;10.70;;
71125;SDS011;58785;55.566;38.058;2023-04-01T16:31:34;27.65;;;12.63;;
71125;SDS011;58785;55.566;38.058;2023-04-01T16:34:35;22.98;;;11.38;;
71125;SDS011;58785;55.566;38.058;2023-04-01T16:44:46;20.27;;;9.30;;
71125;SDS011;58785;55.566;38.058;2023-04-01T16:47:19;19.05;;;8.30;;
71125;SDS011;58785;55.566;38.058;2023-04-01T16:49:54;18.90;;;8.27;;
71125;SDS011;58785;55.566;38.058;2023-04-01T16:55:18;17.50;;;8.15;;
71125;SDS011;58785;55.566;38.058;2023-04-01T17:03:12;22.43;;;10.27;;
71125;SDS011;58785;55.566;38.058;2023-04-01T17:05:57;27.58;;;12.10;;
71125;SDS011;58785;55.566;38.058;2023-04-01T17:11:24;19.38;;;8.50;;
71125;SDS011;58785;55.566;38.058;2023-04-01T17:14:23;21.70;;;8.07;;
71125;SDS011;58785;55.566;38.058;2023-04-01T17:17:24;19.00;;;8.57;;
71125;SDS011;58785;55.566;38.058;2023-04-01T17:22:40;17.63;;;7.57;;
71125;SDS011;58785;55.566;38.058;2023-04-01T17:31:00;18.13;;;7.27;;
71125;SDS011;58785;55.566;38.058;2023-04-01T17:33:46;24.27;;;9.10;;
71125;SDS011;58785;55.566;38.058;2023-04-01T17:36:24;17.23;;;8.18;;
71125;SDS011;58785;55.566;38.058;2023-04-01T17:47:54;19.30;;;8.35;;
71125;SDS011;58785;55.566;38.058;2023-04-01T17:50:55;20.50;;;8.98;;
71125;SDS011;58785;55.566;38.058;2023-04-01T18:04:52;18.20;;;8.38;;
71125;SDS011;58785;55.566;38.058;2023-04-01T18:10:28;20.25;;;8.45;;
71125;SDS011;58785;55.566;38.058;2023-04-01T18:13:29;22.47;;;8.93;;
71125;SDS011;58785;55.566;38.058;2023-04-01T18:16:15;20.58;;;9.50;;
71125;SDS011;58785;55.566;38.058;2023-04-01T18:21:43;17.02;;;7.70;;
71125;SDS011;58785;55.566;38.058;2023-04-01T18:24:40;21.63;;;8.52;;
71125;SDS011;58785;55.566;38.058;2023-04-01T18:38:16;20.88;;;9.05;;
71125;SDS011;58785;55.566;38.058;2023-04-01T18:41:14;21.77;;;8.60;;
71125;SDS011;58785;55.566;38.058;2023-04-01T18:47:24;17.15;;;7.75;;
71125;SDS011;58785;55.566;38.058;2023-04-01T18:52:41;17.98;;;8.18;;
71125;SDS011;58785;55.566;38.058;2023-04-01T18:58:18;20.25;;;8.18;;
71125;SDS011;58785;55.566;38.058;2023-04-01T19:03:48;20.00;;;8.45;;
71125;SDS011;58785;55.566;38.058;2023-04-01T19:06:23;19.45;;;8.30;;
71125;SDS011;58785;55.566;38.058;2023-04-01T19:08:55;19.73;;;7.90;;
71125;SDS011;58785;55.566;38.058;2023-04-01T19:26:20;18.35;;;7.30;;
71125;SDS011;58785;55.566;38.058;2023-04-01T19:28:55;19.33;;;8.32;;
71125;SDS011;58785;55.566;38.058;2023-04-01T19:37:12;23.57;;;8.07;;
71125;SDS011;58785;55.566;38.058;2023-04-01T19:45:45;17.33;;;7.75;;
71125;SDS011;58785;55.566;38.058;2023-04-01T19:51:35;18.33;;;7.73;;
71125;SDS011;58785;55.566;38.058;2023-04-01T19:57:05;18.08;;;8.45;;
71125;SDS011;58785;55.566;38.058;2023-04-01T20:04:42;19.67;;;8.00;;
71125;SDS011;58785;55.566;38.058;2023-04-01T20:07:13;17.88;;;7.18;;
71125;SDS011;58785;55.566;38.058;2023-04-01T20:12:21;18.37;;;7.57;;
71125;SDS011;58785;55.566;38.058;2023-04-01T20:14:50;19.60;;;8.05;;
71125;SDS011;58785;55.566;38.058;2023-04-01T20:19:51;19.08;;;7.75;;
71125;SDS011;58785;55.566;38.058;2023-04-01T20:41:40;17.27;;;6.95;;
71125;SDS011;58785;55.566;38.058;2023-04-01T20:44:25;18.73;;;7.55;;
71125;SDS011;58785;55.566;38.058;2023-04-01T20:49:45;20.58;;;7.18;;
71125;SDS011;58785;55.566;38.058;2023-04-01T20:57:16;16.63;;;7.10;;
71125;SDS011;58785;55.566;38.058;2023-04-01T21:00:16;15.32;;;6.57;;
71125;SDS011;58785;55.566;38.058;2023-04-01T21:02:50;18.42;;;7.20;;
71125;SDS011;58785;55.566;38.058;2023-04-01T21:05:31;15.25;;;6.63;;
71125;SDS011;58785;55.566;38.058;2023-04-01T21:10:50;17.17;;;7.43;;
71125;SDS011;58785;55.566;38.058;2023-04-01T21:23:39;20.70;;;7.57;;
71125;SDS011;58785;55.566;38.058;2023-04-01T21:26:10;17.95;;;7.38;;
71125;SDS011;58785;55.566;38.058;2023-04-01T21:34:35;17.98;;;7.55;;
71125;SDS011;58785;55.566;38.058;2023-04-01T21:47:33;18.37;;;7.17;;
71125;SDS011;58785;55.566;38.058;2023-04-01T21:52:59;16.98;;;6.68;;
71125;SDS011;58785;55.566;38.058;2023-04-01T21:55:52;20.85;;;7.28;;
71125;SDS011;58785;55.566;38.058;2023-04-01T22:07:03;19.60;;;7.80;;
71125;SDS011;58785;55.566;38.058;2023-04-01T22:12:14;18.20;;;7.83;;
71125;SDS011;58785;55.566;38.058;2023-04-01T22:17:28;21.70;;;7.53;;
71125;SDS011;58785;55.566;38.058;2023-04-01T22:23:16;21.95;;;8.15;;
71125;SDS011;58785;55.566;38.058;2023-04-01T22:25:48;23.37;;;8.53;;
71125;SDS011;58785;55.566;38.058;2023-04-01T22:28:17;20.10;;;8.48;;
71125;SDS011;58785;55.566;38.058;2023-04-01T22:30:49;20.98;;;7.97;;
71125;SDS011;58785;55.566;38.058;2023-04-01T22:39:38;24.03;;;7.67;;
71125;SDS011;58785;55.566;38.058;2023-04-01T22:42:14;22.58;;;8.48;;
71125;SDS011;58785;55.566;38.058;2023-04-01T22:50:50;30.52;;;9.90;;
71125;SDS011;58785;55.566;38.058;2023-04-01T22:53:57;22.23;;;8.30;;
71125;SDS011;58785;55.566;38.058;2023-04-01T22:56:18;24.65;;;8.38;;
71125;SDS011;58785;55.566;38.058;2023-04-01T22:58:59;25.88;;;8.38;;
71125;SDS011;58785;55.566;38.058;2023-04-01T23:01:29;21.83;;;8.23;;
71125;SDS011;58785;55.566;38.058;2023-04-01T23:03:58;26.42;;;10.25;;
71125;SDS011;58785;55.566;38.058;2023-04-01T23:06:30;26.87;;;9.20;;
71125;SDS011;58785;55.566;38.058;2023-04-01T23:09:11;26.50;;;8.65;;
71125;SDS011;58785;55.566;38.058;2023-04-01T23:24:50;28.25;;;10.25;;
71125;SDS011;58785;55.566;38.058;2023-04-01T23:27:31;29.77;;;10.13;;
71125;SDS011;58785;55.566;38.058;2023-04-01T23:30:04;26.67;;;9.75;;
71125;SDS011;58785;55.566;38.058;2023-04-01T23:32:49;26.70;;;9.60;;
71125;SDS011;58785;55.566;38.058;2023-04-01T23:35:15;26.65;;;10.10;;
71125;SDS011;58785;55.566;38.058;2023-04-01T23:37:42;26.05;;;9.88;;
71125;SDS011;58785;55.566;38.058;2023-04-01T23:40:10;26.97;;;9.50;;
71125;SDS011;58785;55.566;38.058;2023-04-01T23:42:39;27.30;;;9.23;;
71125;SDS011;58785;55.566;38.058;2023-04-01T23:45:13;26.02;;;9.63;;
71125;SDS011;58785;55.566;38.058;2023-04-01T23:47:47;29.52;;;9.32;;
71125;SDS011;58785;55.566;38.058;2023-04-01T23:50:17;27.38;;;10.05;;
71125;SDS011;58785;55.566;38.058;2023-04-01T23:52:55;29.87;;;10.47;;
71125;SDS011;58785;55.566;38.058;2023-04-01T23:55:33;26.52;;;10.00;;
71125;SDS011;58785;55.566;38.058;2023-04-01T23:58:14;26.20;;;9.45;;
